Time;durP1;ratioP1;P1;durP2;ratioP2;P2;SDS_P1;SDS_P2;PMS_P1;PMS_P2;Temp;Humidity;BMP_temperature;BMP_pressure;BME280_temperature;BME280_humidity;BME280_pressure;Samples;Min_cycle;Max_cycle;Signal;HPM_P1;HPM_P2
2024/01/21 00:01:15;;;;;;;;;;;52.10;2227.20;;;;;;4994687;28;19909;-80
2024/01/21 00:03:41;;;;;;;;;;;52.00;2227.20;;;;;;4994978;28;19983;-81
2024/01/21 00:06:07;;;;;;;;;;;52.00;2227.20;;;;;;4993770;28;19979;-80
2024/01/21 00:08:33;;;;;;;;;;;51.90;2227.20;;;;;;4993912;28;19910;-81
2024/01/21 00:10:59;;;;;;;;;;;51.90;2227.20;;;;;;4994304;28;20365;-81
2024/01/21 00:13:25;;;;;;;;;;;51.90;2227.20;;;;;;4993995;28;19937;-81
2024/01/21 00:15:50;;;;;;;;;;;51.90;2227.20;;;;;;4988642;28;20008;-80
2024/01/21 00:18:16;;;;;;;;;;;52.00;2227.20;;;;;;4992555;28;19910;-81
2024/01/21 00:20:42;;;;;;;;;;;52.00;2227.20;;;;;;4993948;28;19917;-81
2024/01/21 00:23:08;;;;;;;;;;;51.90;2227.20;;;;;;5000306;28;20286;-81
2024/01/21 00:25:34;;;;;;;;;;;52.00;2227.20;;;;;;4994208;28;19926;-80
2024/01/21 00:28:00;;;;;;;;;;;52.00;2227.20;;;;;;4993929;28;19917;-81
2024/01/21 00:30:25;;;;;;;;;;;51.90;2227.20;;;;;;4993995;28;19909;-81
2024/01/21 00:32:51;;;;;;;;;;;51.80;2227.20;;;;;;5004215;28;19911;-81
2024/01/21 00:35:17;;;;;;;;;;;51.90;2227.20;;;;;;5001319;28;19910;-81
2024/01/21 00:37:43;;;;;;;;;;;51.80;2227.20;;;;;;4993903;28;19975;-80
2024/01/21 00:40:09;;;;;;;;;;;51.60;2227.20;;;;;;4993856;28;20362;-81
2024/01/21 00:42:35;;;;;;;;;;;51.60;2227.20;;;;;;4993479;28;19914;-81
2024/01/21 00:45:01;;;;;;;;;;;51.50;2227.20;;;;;;4990126;28;19917;-80
2024/01/21 00:47:26;;;;;;;;;;;52.00;2227.20;;;;;;4994055;28;19910;-80
2024/01/21 00:49:52;;;;;;;;;;;51.60;2227.20;;;;;;4993401;28;19916;-81
2024/01/21 00:52:17;;;;;;;;;;;51.50;2227.20;;;;;;4994139;28;19925;-80
2024/01/21 00:54:43;;;;;;;;;;;51.50;2227.20;;;;;;4995925;28;19921;-80
2024/01/21 00:57:09;;;;;;;;;;;51.60;2227.20;;;;;;5014832;28;19921;-81
2024/01/21 00:59:34;;;;;;;;;;;51.60;2227.20;;;;;;5012712;28;19909;-81
2024/01/21 01:02:00;;;;;;;;;;;51.50;2227.20;;;;;;5010968;28;19913;-80
2024/01/21 01:04:25;;;;;;;;;;;51.50;2227.20;;;;;;5039643;28;20012;-81
2024/01/21 01:06:51;;;;;;;;;;;51.60;2227.20;;;;;;5015381;28;20385;-81
2024/01/21 01:09:17;;;;;;;;;;;51.60;2227.20;;;;;;5016264;28;19956;-81
2024/01/21 01:11:42;;;;;;;;;;;51.30;2227.20;;;;;;5016227;28;19913;-81
2024/01/21 01:14:08;;;;;;;;;;;51.60;2227.20;;;;;;5025089;28;19916;-81
2024/01/21 01:16:40;;;;;;;;;;;51.70;2227.20;;;;;;5013027;28;19921;-81
2024/01/21 01:19:06;;;;;;;;;;;51.80;2227.20;;;;;;4999213;28;19910;-80
2024/01/21 01:21:32;;;;;;;;;;;51.60;2227.20;;;;;;5009918;28;20284;-81
2024/01/21 01:23:57;;;;;;;;;;;51.60;2227.20;;;;;;5012519;28;19928;-81
2024/01/21 01:26:23;;;;;;;;;;;51.40;2227.20;;;;;;5010284;28;19924;-81
2024/01/21 01:28:50;;;;;;;;;;;51.50;2227.20;;;;;;5016742;28;19948;-81
2024/01/21 01:31:19;;;;;;;;;;;51.50;2227.20;;;;;;5020608;28;19909;-81
2024/01/21 01:33:44;;;;;;;;;;;51.30;2227.20;;;;;;5020950;28;19913;-80
2024/01/21 01:36:10;;;;;;;;;;;51.30;2227.20;;;;;;5020060;28;19963;-80
2024/01/21 01:38:36;;;;;;;;;;;51.40;2227.20;;;;;;5021149;28;20321;-81
2024/01/21 01:41:02;;;;;;;;;;;51.40;2227.20;;;;;;5020776;28;19909;-80
2024/01/21 01:43:27;;;;;;;;;;;51.50;2227.20;;;;;;5038275;28;19931;-81
2024/01/21 01:45:53;;;;;;;;;;;51.50;2227.20;;;;;;5020566;28;19959;-80
2024/01/21 01:48:20;;;;;;;;;;;51.50;2227.20;;;;;;5020715;28;20264;-81
2024/01/21 01:50:46;;;;;;;;;;;51.60;2227.20;;;;;;5020004;28;19909;-81
2024/01/21 01:53:12;;;;;;;;;;;52.00;2227.20;;;;;;5020021;28;19916;-81
2024/01/21 01:55:37;;;;;;;;;;;51.30;2227.20;;;;;;5019980;28;20043;-81
2024/01/21 01:58:03;;;;;;;;;;;51.20;2227.20;;;;;;5020287;28;20376;-81
2024/01/21 02:00:29;;;;;;;;;;;26.50;2201.60;;;;;;5020237;28;20042;-81
2024/01/21 02:02:55;;;;;;;;;;;51.30;2227.20;;;;;;5020682;28;19939;-81
2024/01/21 02:05:20;;;;;;;;;;;26.30;2201.60;;;;;;5020558;28;20020;-81
2024/01/21 02:07:46;;;;;;;;;;;26.30;2201.60;;;;;;5020802;28;19909;-80
2024/01/21 02:10:12;;;;;;;;;;;26.30;2201.60;;;;;;5021215;28;20349;-80
2024/01/21 02:12:42;;;;;;;;;;;26.40;2201.60;;;;;;5056191;28;19913;-79
2024/01/21 02:15:08;;;;;;;;;;;26.50;2201.60;;;;;;5061039;28;19897;-79
2024/01/21 02:17:34;;;;;;;;;;;26.50;2201.60;;;;;;5060509;28;19940;-81
2024/01/21 02:19:59;;;;;;;;;;;51.20;2227.20;;;;;;5044333;28;19897;-81
2024/01/21 02:22:26;;;;;;;;;;;26.50;2201.60;;;;;;5020130;28;19909;-80
2024/01/21 02:24:51;;;;;;;;;;;26.40;2201.60;;;;;;5037125;28;19924;-80
2024/01/21 02:27:17;;;;;;;;;;;26.50;2201.60;;;;;;5019819;28;19909;-80
2024/01/21 02:29:42;;;;;;;;;;;51.20;2227.20;;;;;;5019625;28;20281;-81
2024/01/21 02:32:08;;;;;;;;;;;51.30;2227.20;;;;;;5019712;28;20000;-81
2024/01/21 02:34:33;;;;;;;;;;;51.30;2227.20;;;;;;5019733;28;20357;-81
2024/01/21 02:36:59;;;;;;;;;;;51.20;2227.20;;;;;;5019486;28;19917;-80
2024/01/21 02:39:25;;;;;;;;;;;51.20;2227.20;;;;;;5019804;28;19916;-81
2024/01/21 02:41:50;;;;;;;;;;;26.50;2201.60;;;;;;5017104;28;19909;-80
2024/01/21 02:44:16;;;;;;;;;;;26.40;2201.60;;;;;;5015138;28;19931;-81
2024/01/21 02:46:42;;;;;;;;;;;26.50;2201.60;;;;;;5018421;28;19917;-81
2024/01/21 02:49:08;;;;;;;;;;;51.20;2227.20;;;;;;5018823;28;20359;-81
2024/01/21 02:51:34;;;;;;;;;;;51.20;2227.20;;;;;;5030537;28;19949;-81
2024/01/21 02:53:59;;;;;;;;;;;26.50;2201.60;;;;;;5035631;28;19909;-80
2024/01/21 02:56:26;;;;;;;;;;;26.30;2201.60;;;;;;5030078;28;19925;-80
2024/01/21 02:58:52;;;;;;;;;;;26.30;2201.60;;;;;;5016826;28;19909;-80
2024/01/21 03:01:18;;;;;;;;;;;26.30;2201.60;;;;;;5021203;28;19917;-81
2024/01/21 03:03:44;;;;;;;;;;;26.40;2201.60;;;;;;5013970;28;19972;-81
2024/01/21 03:06:09;;;;;;;;;;;26.40;2201.60;;;;;;5030373;28;19917;-80
2024/01/21 03:08:35;;;;;;;;;;;26.30;2201.60;;;;;;5018299;28;19910;-81
2024/01/21 03:11:02;;;;;;;;;;;26.30;2201.60;;;;;;5036113;28;19909;-81
2024/01/21 03:13:28;;;;;;;;;;;26.10;2201.60;;;;;;5033931;28;20007;-81
2024/01/21 03:15:53;;;;;;;;;;;26.10;2201.60;;;;;;5026439;28;20415;-80
2024/01/21 03:18:19;;;;;;;;;;;26.00;2201.60;;;;;;5026881;28;19968;-80
2024/01/21 03:20:45;;;;;;;;;;;25.90;2201.60;;;;;;5034644;28;19913;-80
2024/01/21 03:23:11;;;;;;;;;;;25.90;2201.60;;;;;;5035798;28;19909;-80
2024/01/21 03:25:36;;;;;;;;;;;25.80;2201.60;;;;;;5034382;28;19917;-80
2024/01/21 03:28:03;;;;;;;;;;;25.80;2201.60;;;;;;5016964;28;19963;-81
2024/01/21 03:30:29;;;;;;;;;;;26.00;2201.60;;;;;;5012978;28;19975;-80
2024/01/21 03:32:54;;;;;;;;;;;26.10;2201.60;;;;;;5026202;28;20376;-80
2024/01/21 03:35:20;;;;;;;;;;;26.20;2201.60;;;;;;5017928;28;19909;-80
2024/01/21 03:37:45;;;;;;;;;;;26.20;2201.60;;;;;;5026741;28;19940;-80
2024/01/21 03:40:11;;;;;;;;;;;26.10;2201.60;;;;;;5009202;28;19917;-80
2024/01/21 03:42:37;;;;;;;;;;;26.20;2201.60;;;;;;5017965;28;19909;-80
2024/01/21 03:45:02;;;;;;;;;;;26.40;2201.60;;;;;;5018205;28;19916;-80
2024/01/21 03:47:28;;;;;;;;;;;26.30;2201.60;;;;;;5017511;28;19909;-80
2024/01/21 03:49:54;;;;;;;;;;;26.20;2201.60;;;;;;5035343;28;20430;-80
2024/01/21 03:52:20;;;;;;;;;;;26.00;2201.60;;;;;;5028814;28;19967;-79
2024/01/21 03:54:46;;;;;;;;;;;25.90;2201.60;;;;;;5017170;28;20353;-80
2024/01/21 03:57:11;;;;;;;;;;;25.90;2201.60;;;;;;5035108;28;19917;-80
2024/01/21 03:59:38;;;;;;;;;;;25.80;2201.60;;;;;;5028492;28;19952;-80
2024/01/21 04:02:04;;;;;;;;;;;25.80;2201.60;;;;;;5028766;28;19920;-80
2024/01/21 04:04:30;;;;;;;;;;;25.90;2201.60;;;;;;5035234;28;19909;-87
2024/01/21 04:06:56;;;;;;;;;;;26.00;2201.60;;;;;;5033192;28;19920;-80
2024/01/21 04:09:23;;;;;;;;;;;26.00;2201.60;;;;;;5045957;28;19909;-85
2024/01/21 04:11:51;;;;;;;;;;;26.00;2201.60;;;;;;5032443;28;19913;-80
2024/01/21 04:14:16;;;;;;;;;;;26.00;2201.60;;;;;;5013662;28;19995;-79
2024/01/21 04:16:42;;;;;;;;;;;26.00;2201.60;;;;;;5017027;28;20654;-80
2024/01/21 04:19:09;;;;;;;;;;;26.20;2201.60;;;;;;5031521;28;19949;-80
2024/01/21 04:21:36;;;;;;;;;;;26.30;2201.60;;;;;;5017199;28;20266;-79
2024/01/21 04:24:02;;;;;;;;;;;26.30;2201.60;;;;;;5017010;28;19909;-80
2024/01/21 04:26:28;;;;;;;;;;;26.10;2201.60;;;;;;5033234;28;19917;-80
2024/01/21 04:28:53;;;;;;;;;;;26.10;2201.60;;;;;;5018299;28;20376;-80
2024/01/21 04:31:19;;;;;;;;;;;26.20;2201.60;;;;;;5011894;28;19910;-80
2024/01/21 04:33:44;;;;;;;;;;;26.10;2201.60;;;;;;5016135;28;19909;-80
2024/01/21 04:36:15;;;;;;;;;;;26.10;2201.60;;;;;;5032337;28;20372;-80
2024/01/21 04:38:41;;;;;;;;;;;26.10;2201.60;;;;;;5033102;28;20021;-80
2024/01/21 04:41:06;;;;;;;;;;;26.10;2201.60;;;;;;5021149;28;19952;-80
2024/01/21 04:43:32;;;;;;;;;;;26.10;2201.60;;;;;;5016559;28;19963;-80
2024/01/21 04:45:57;;;;;;;;;;;26.30;2201.60;;;;;;5031849;28;19932;-80
2024/01/21 04:48:23;;;;;;;;;;;26.40;2201.60;;;;;;5016704;28;20372;-80
2024/01/21 04:50:48;;;;;;;;;;;26.30;2201.60;;;;;;5016153;28;20007;-80
2024/01/21 04:53:14;;;;;;;;;;;26.30;2201.60;;;;;;5015854;28;20361;-80
2024/01/21 04:55:40;;;;;;;;;;;26.30;2201.60;;;;;;5031683;28;19931;-80
2024/01/21 04:58:05;;;;;;;;;;;26.40;2201.60;;;;;;5027828;28;19925;-80
2024/01/21 05:00:31;;;;;;;;;;;26.40;2201.60;;;;;;5017535;28;20411;-79
2024/01/21 05:02:56;;;;;;;;;;;26.50;2201.60;;;;;;5008942;28;19909;-80
2024/01/21 05:05:22;;;;;;;;;;;51.20;2227.20;;;;;;5009384;28;20391;-80
2024/01/21 05:07:48;;;;;;;;;;;26.50;2201.60;;;;;;5009506;28;19913;-81
2024/01/21 05:10:13;;;;;;;;;;;26.50;2201.60;;;;;;5023339;28;19913;-81
2024/01/21 05:12:39;;;;;;;;;;;26.20;2201.60;;;;;;5012420;28;19913;-80
2024/01/21 05:15:05;;;;;;;;;;;26.30;2201.60;;;;;;5032301;28;20253;-80
2024/01/21 05:17:30;;;;;;;;;;;26.40;2201.60;;;;;;5010801;28;19940;-80
2024/01/21 05:19:56;;;;;;;;;;;26.50;2201.60;;;;;;5016256;28;19913;-80
2024/01/21 05:22:21;;;;;;;;;;;26.50;2201.60;;;;;;5019767;28;19909;-81
2024/01/21 05:24:47;;;;;;;;;;;26.50;2201.60;;;;;;5016443;28;19995;-81
2024/01/21 05:27:13;;;;;;;;;;;26.40;2201.60;;;;;;5016312;28;20285;-81
2024/01/21 05:29:41;;;;;;;;;;;26.30;2201.60;;;;;;5033421;28;19948;-81
2024/01/21 05:32:06;;;;;;;;;;;26.00;2201.60;;;;;;5031800;28;19915;-80
2024/01/21 05:34:32;;;;;;;;;;;25.90;2201.60;;;;;;5016417;28;19953;-81
2024/01/21 05:36:58;;;;;;;;;;;25.60;2201.60;;;;;;5031635;28;19905;-80
2024/01/21 05:39:23;;;;;;;;;;;0.90;2201.60;;;;;;5055217;28;19898;-80
2024/01/21 05:42:09;;;;;;;;;;;25.60;2201.60;;;;;;5023089;28;20331;-80
2024/01/21 05:44:34;;;;;;;;;;;25.80;2201.60;;;;;;5043422;28;20392;-80
2024/01/21 05:47:00;;;;;;;;;;;25.90;2201.60;;;;;;5033459;28;19909;-80
2024/01/21 05:49:26;;;;;;;;;;;26.00;2201.60;;;;;;5016226;28;19917;-80
2024/01/21 05:51:52;;;;;;;;;;;25.90;2201.60;;;;;;5014723;28;20007;-80
2024/01/21 05:54:17;;;;;;;;;;;25.80;2201.60;;;;;;5012943;28;19909;-80
2024/01/21 05:56:43;;;;;;;;;;;25.80;2201.60;;;;;;5015736;28;19927;-80
2024/01/21 05:59:09;;;;;;;;;;;25.70;2201.60;;;;;;5016018;28;20008;-80
2024/01/21 06:01:34;;;;;;;;;;;25.70;2201.60;;;;;;5011791;28;19909;-81
2024/01/21 06:04:00;;;;;;;;;;;25.90;2201.60;;;;;;5015624;28;20007;-79
2024/01/21 06:06:25;;;;;;;;;;;26.00;2201.60;;;;;;5015686;28;19909;-80
2024/01/21 06:08:51;;;;;;;;;;;26.00;2201.60;;;;;;5015146;28;19964;-81
2024/01/21 06:11:19;;;;;;;;;;;26.10;2201.60;;;;;;5003994;28;19910;-80
2024/01/21 06:13:45;;;;;;;;;;;26.00;2201.60;;;;;;5032271;28;19913;-82
2024/01/21 06:16:15;;;;;;;;;;;25.90;2201.60;;;;;;5017829;28;19915;-82
2024/01/21 06:18:40;;;;;;;;;;;26.00;2201.60;;;;;;5036086;28;19909;-82
2024/01/21 06:21:06;;;;;;;;;;;26.00;2201.60;;;;;;5019441;28;19915;-82
2024/01/21 06:23:32;;;;;;;;;;;26.10;2201.60;;;;;;5019666;28;19917;-82
2024/01/21 06:25:57;;;;;;;;;;;26.10;2201.60;;;;;;5019037;28;19956;-83
2024/01/21 06:28:23;;;;;;;;;;;26.00;2201.60;;;;;;5019613;28;19909;-83
2024/01/21 06:30:48;;;;;;;;;;;26.00;2201.60;;;;;;5012552;28;19980;-83
2024/01/21 06:33:14;;;;;;;;;;;26.10;2201.60;;;;;;5036131;28;20008;-82
2024/01/21 06:35:40;;;;;;;;;;;26.10;2201.60;;;;;;5023638;28;20324;-83
2024/01/21 06:38:05;;;;;;;;;;;26.00;2201.60;;;;;;5035412;28;19917;-82
2024/01/21 06:40:31;;;;;;;;;;;26.20;2201.60;;;;;;5019897;28;20317;-83
2024/01/21 06:42:56;;;;;;;;;;;26.20;2201.60;;;;;;5034604;28;19955;-81
2024/01/21 06:45:23;;;;;;;;;;;26.20;2201.60;;;;;;5019146;28;19913;-82
2024/01/21 06:47:50;;;;;;;;;;;26.20;2201.60;;;;;;5019615;28;19909;-82
2024/01/21 06:50:15;;;;;;;;;;;26.30;2201.60;;;;;;5018440;28;19958;-78
2024/01/21 06:52:41;;;;;;;;;;;26.40;2201.60;;;;;;5013439;28;19999;-78
2024/01/21 06:55:07;;;;;;;;;;;26.40;2201.60;;;;;;5013839;28;20003;-78
2024/01/21 06:57:32;;;;;;;;;;;26.40;2201.60;;;;;;5017811;28;20012;-78
2024/01/21 06:59:58;;;;;;;;;;;26.40;2201.60;;;;;;5017944;28;20399;-77
2024/01/21 07:02:24;;;;;;;;;;;26.50;2201.60;;;;;;5018560;28;19913;-78
2024/01/21 07:04:49;;;;;;;;;;;51.20;2227.20;;;;;;5010285;28;20365;-80
2024/01/21 07:07:15;;;;;;;;;;;51.30;2227.20;;;;;;5023181;28;19940;-84
2024/01/21 07:09:41;;;;;;;;;;;51.30;2227.20;;;;;;5027595;28;19995;-80
2024/01/21 07:12:07;;;;;;;;;;;51.20;2227.20;;;;;;5029100;28;20369;-80
2024/01/21 07:14:34;;;;;;;;;;;51.30;2227.20;;;;;;5036026;28;19980;-81
2024/01/21 07:17:03;;;;;;;;;;;51.30;2227.20;;;;;;5012774;28;19917;-80
2024/01/21 07:19:29;;;;;;;;;;;51.50;2227.20;;;;;;5026706;28;19909;-81
2024/01/21 07:21:54;;;;;;;;;;;51.50;2227.20;;;;;;5009562;28;19960;-82
2024/01/21 07:24:20;;;;;;;;;;;51.50;2227.20;;;;;;5017425;28;19988;-84
2024/01/21 07:26:45;;;;;;;;;;;51.50;2227.20;;;;;;5026448;28;19910;-81
2024/01/21 07:29:13;;;;;;;;;;;51.50;2227.20;;;;;;5017993;28;19913;-82
2024/01/21 07:31:39;;;;;;;;;;;51.60;2227.20;;;;;;5031587;28;19920;-81
2024/01/21 07:34:09;;;;;;;;;;;51.60;2227.20;;;;;;5041948;28;20285;-82
2024/01/21 07:36:34;;;;;;;;;;;51.60;2227.20;;;;;;5033839;28;19925;-79
2024/01/21 07:39:00;;;;;;;;;;;51.70;2227.20;;;;;;5017396;28;19909;-81
2024/01/21 07:41:26;;;;;;;;;;;51.70;2227.20;;;;;;5009343;28;19909;-80
2024/01/21 07:43:51;;;;;;;;;;;51.80;2227.20;;;;;;5027211;28;19910;-80
2024/01/21 07:46:17;;;;;;;;;;;51.90;2227.20;;;;;;5017435;28;19967;-79
2024/01/21 07:48:42;;;;;;;;;;;51.90;2227.20;;;;;;5005945;28;19996;-79
2024/01/21 07:51:08;;;;;;;;;;;51.90;2227.20;;;;;;5012057;28;19913;-79
2024/01/21 07:53:34;;;;;;;;;;;51.90;2227.20;;;;;;5014242;28;19976;-81
2024/01/21 07:55:59;;;;;;;;;;;52.00;2227.20;;;;;;5017917;28;19933;-82
2024/01/21 07:58:25;;;;;;;;;;;76.90;2227.20;;;;;;5024965;28;19920;-80
2024/01/21 08:00:50;;;;;;;;;;;76.90;2227.20;;;;;;5017691;28;19978;-80
2024/01/21 08:03:17;;;;;;;;;;;76.80;2227.20;;;;;;5032574;28;20313;-84
2024/01/21 08:05:43;;;;;;;;;;;76.90;2227.20;;;;;;5016669;28;19920;-84
2024/01/21 08:08:08;;;;;;;;;;;77.00;2227.20;;;;;;5017463;28;19909;-84
2024/01/21 08:10:34;;;;;;;;;;;52.10;2227.20;;;;;;5006190;28;19914;-80
2024/01/21 08:12:59;;;;;;;;;;;52.00;2227.20;;;;;;5015896;28;19909;-79
2024/01/21 08:15:25;;;;;;;;;;;52.10;2227.20;;;;;;5016744;28;19909;-80
2024/01/21 08:17:51;;;;;;;;;;;52.10;2227.20;;;;;;5016676;28;20365;-81
2024/01/21 08:20:16;;;;;;;;;;;52.00;2227.20;;;;;;5033459;28;19909;-80
2024/01/21 08:22:43;;;;;;;;;;;52.00;2227.20;;;;;;5016544;28;19937;-79
2024/01/21 08:25:09;;;;;;;;;;;52.10;2227.20;;;;;;5023790;28;20388;-78
2024/01/21 08:27:34;;;;;;;;;;;52.10;2227.20;;;;;;5028447;28;19914;-81
2024/01/21 08:30:02;;;;;;;;;;;52.10;2227.20;;;;;;5014366;28;19916;-83
2024/01/21 08:32:28;;;;;;;;;;;52.10;2227.20;;;;;;5045061;28;19909;-82
2024/01/21 08:34:54;;;;;;;;;;;52.10;2227.20;;;;;;5032563;28;19913;-82
2024/01/21 08:37:19;;;;;;;;;;;52.00;2227.20;;;;;;5024645;28;19932;-81
2024/01/21 08:39:45;;;;;;;;;;;52.10;2227.20;;;;;;5015958;28;20430;-80
2024/01/21 08:42:11;;;;;;;;;;;52.10;2227.20;;;;;;5016389;28;19913;-79
2024/01/21 08:44:36;;;;;;;;;;;52.10;2227.20;;;;;;5016202;28;20012;-78
2024/01/21 08:47:02;;;;;;;;;;;76.90;2227.20;;;;;;5017156;28;19916;-79
2024/01/21 08:49:28;;;;;;;;;;;76.90;2227.20;;;;;;5032957;28;19909;-80
2024/01/21 08:51:54;;;;;;;;;;;76.90;2227.20;;;;;;5026837;28;19913;-80
2024/01/21 08:54:19;;;;;;;;;;;76.90;2227.20;;;;;;5003669;28;19992;-79
2024/01/21 08:56:45;;;;;;;;;;;77.00;2227.20;;;;;;5015764;28;20365;-78
2024/01/21 08:59:12;;;;;;;;;;;77.00;2227.20;;;;;;5015541;28;21358;-78
2024/01/21 09:01:38;;;;;;;;;;;77.00;2227.20;;;;;;5035683;28;19944;-78
2024/01/21 09:04:04;;;;;;;;;;;76.90;2227.20;;;;;;5021210;28;19972;-78
2024/01/21 09:06:30;;;;;;;;;;;77.10;2227.20;;;;;;5031983;28;19901;-81
2024/01/21 09:08:56;;;;;;;;;;;77.20;2227.20;;;;;;5016273;28;19957;-79
2024/01/21 09:11:23;;;;;;;;;;;77.20;2227.20;;;;;;5016584;28;19917;-81
2024/01/21 09:13:49;;;;;;;;;;;77.20;2227.20;;;;;;5033732;28;20349;-81
2024/01/21 09:16:19;;;;;;;;;;;77.40;2227.20;;;;;;5033661;28;19919;-80
2024/01/21 09:18:45;;;;;;;;;;;77.40;2227.20;;;;;;5012347;28;19972;-80
2024/01/21 09:21:11;;;;;;;;;;;102.50;2227.20;;;;;;5014350;28;19925;-80
2024/01/21 09:23:37;;;;;;;;;;;77.60;2227.20;;;;;;5013045;28;19917;-86
2024/01/21 09:26:02;;;;;;;;;;;77.70;2227.20;;;;;;5011832;28;20381;-80
2024/01/21 09:28:28;;;;;;;;;;;102.40;2227.20;;;;;;5014789;28;20361;-79
2024/01/21 09:30:54;;;;;;;;;;;102.50;2227.20;;;;;;5015838;28;20241;-83
2024/01/21 09:33:20;;;;;;;;;;;102.70;2227.20;;;;;;5027282;28;19956;-80
2024/01/21 09:35:46;;;;;;;;;;;102.60;2227.20;;;;;;5011188;28;20004;-80
2024/01/21 09:38:14;;;;;;;;;;;102.80;2227.20;;;;;;5031406;28;20004;-83
2024/01/21 09:40:40;;;;;;;;;;;102.90;2227.20;;;;;;5010724;28;19918;-80
2024/01/21 09:43:06;;;;;;;;;;;103.00;2227.20;;;;;;5011123;28;19913;-77
2024/01/21 09:45:33;;;;;;;;;;;103.10;2227.20;;;;;;5021461;28;19909;-79
2024/01/21 09:47:59;;;;;;;;;;;128.00;2252.80;;;;;;5008511;28;20365;-77
2024/01/21 09:50:25;;;;;;;;;;;128.10;2252.80;;;;;;5011733;28;20019;-76
2024/01/21 09:52:51;;;;;;;;;;;128.20;2252.80;;;;;;5030806;28;20001;-76
2024/01/21 09:55:17;;;;;;;;;;;128.10;2252.80;;;;;;5018570;28;20328;-76
2024/01/21 09:57:42;;;;;;;;;;;128.50;2252.80;;;;;;5015783;28;19921;-77
2024/01/21 10:00:10;;;;;;;;;;;128.70;2252.80;;;;;;5049034;28;19909;-78
2024/01/21 10:02:35;;;;;;;;;;;128.90;2252.80;;;;;;5011567;28;19909;-78
2024/01/21 10:05:01;;;;;;;;;;;128.90;2252.80;;;;;;5010099;28;19909;-78
2024/01/21 10:07:27;;;;;;;;;;;154.00;2252.80;;;;;;5018903;28;19913;-78
2024/01/21 10:09:54;;;;;;;;;;;154.20;2252.80;;;;;;5009419;28;19921;-80
2024/01/21 10:12:22;;;;;;;;;;;179.40;2252.80;;;;;;5021112;28;19909;-78
2024/01/21 10:14:48;;;;;;;;;;;179.60;2227.20;;;;;;5012905;28;19909;-80
2024/01/21 10:17:14;;;;;;;;;;;179.70;2176.00;;;;;;5028050;28;19917;-79
2024/01/21 10:19:39;;;;;;;;;;;180.10;2073.60;;;;;;5018626;28;19916;-79
2024/01/21 10:22:11;;;;;;;;;;;204.90;2073.60;;;;;;5033604;28;19913;-79
2024/01/21 10:24:38;;;;;;;;;;;204.90;1996.80;;;;;;5048434;28;19921;-81
2024/01/21 10:27:05;;;;;;;;;;;205.10;1996.80;;;;;;5040397;28;20007;-79
2024/01/21 10:29:31;;;;;;;;;;;205.40;2022.40;;;;;;5018849;28;19909;-79
2024/01/21 10:31:56;;;;;;;;;;;205.70;1945.60;;;;;;5017991;28;20051;-79
2024/01/21 10:34:22;;;;;;;;;;;205.60;1920.00;;;;;;5017518;28;20345;-78
2024/01/21 10:36:50;;;;;;;;;;;205.70;1894.40;;;;;;5023838;28;19924;-78
2024/01/21 10:39:18;;;;;;;;;;;230.40;1920.00;;;;;;5034809;28;19913;-77
2024/01/21 10:41:43;;;;;;;;;;;205.70;1894.40;;;;;;5017917;28;19916;-78
2024/01/21 10:44:09;;;;;;;;;;;230.50;1868.80;;;;;;5026368;28;19910;-79
2024/01/21 10:46:37;;;;;;;;;;;230.50;1868.80;;;;;;5006862;28;19963;-79
2024/01/21 10:49:03;;;;;;;;;;;230.60;1817.60;;;;;;5029073;28;20369;-79
2024/01/21 10:51:29;;;;;;;;;;;230.50;1817.60;;;;;;5026339;28;19944;-78
2024/01/21 10:53:56;;;;;;;;;;;230.80;1817.60;;;;;;5025969;28;20007;-79
2024/01/21 10:56:23;;;;;;;;;;;230.90;1766.40;;;;;;5029469;28;19928;-79
2024/01/21 10:58:49;;;;;;;;;;;231.00;1817.60;;;;;;5011901;28;20062;-78
2024/01/21 11:01:15;;;;;;;;;;;231.30;1792.00;;;;;;5011641;28;19960;-80
2024/01/21 11:03:43;;;;;;;;;;;256.20;1792.00;;;;;;5034618;28;20585;-79
2024/01/21 11:06:10;;;;;;;;;;;256.10;1766.40;;;;;;5017456;28;19967;-79
2024/01/21 11:08:36;;;;;;;;;;;256.10;1792.00;;;;;;5017291;28;19909;-79
2024/01/21 11:11:20;;;;;;;;;;;256.10;1766.40;;;;;;5018355;28;19909;-79
2024/01/21 11:13:45;;;;;;;;;;;256.40;1766.40;;;;;;5034840;28;19960;-79
2024/01/21 11:16:17;;;;;;;;;;;256.20;1792.00;;;;;;5042027;28;20322;-80
2024/01/21 11:18:43;;;;;;;;;;;256.00;1766.40;;;;;;5043874;28;19963;-81
2024/01/21 11:21:12;;;;;;;;;;;256.10;1792.00;;;;;;5046980;28;19944;-82
2024/01/21 11:23:37;;;;;;;;;;;256.20;1792.00;;;;;;5013447;28;19948;-81
2024/01/21 11:26:04;;;;;;;;;;;256.10;1817.60;;;;;;5017946;28;19944;-82
2024/01/21 11:28:29;;;;;;;;;;;256.10;1817.60;;;;;;5010902;28;19918;-82
2024/01/21 11:30:59;;;;;;;;;;;231.30;1843.20;;;;;;5013108;28;19915;-81
2024/01/21 11:33:24;;;;;;;;;;;231.30;1817.60;;;;;;5008428;28;20036;-81
2024/01/21 11:35:50;;;;;;;;;;;231.20;1843.20;;;;;;5014131;28;19953;-78
2024/01/21 11:38:15;;;;;;;;;;;231.10;1868.80;;;;;;5033731;28;20258;-80
2024/01/21 11:40:41;;;;;;;;;;;231.10;1868.80;;;;;;5014735;28;19910;-77
2024/01/21 11:43:07;;;;;;;;;;;231.30;1894.40;;;;;;5023639;28;20251;-76
2024/01/21 11:45:32;;;;;;;;;;;231.20;1868.80;;;;;;5019975;28;19909;-76
2024/01/21 11:47:58;;;;;;;;;;;231.00;1868.80;;;;;;5033615;28;19909;-77
2024/01/21 11:50:23;;;;;;;;;;;231.10;1868.80;;;;;;5016163;28;20331;-76
2024/01/21 11:52:49;;;;;;;;;;;230.90;1894.40;;;;;;5020401;28;19909;-76
2024/01/21 11:55:21;;;;;;;;;;;230.70;1894.40;;;;;;5026977;28;19921;-79
2024/01/21 11:57:47;;;;;;;;;;;230.60;1894.40;;;;;;5012714;28;19975;-81
2024/01/21 12:00:13;;;;;;;;;;;230.60;1894.40;;;;;;5018600;28;19917;-82
2024/01/21 12:02:39;;;;;;;;;;;230.70;1920.00;;;;;;5016778;28;19909;-80
2024/01/21 12:05:05;;;;;;;;;;;205.70;1971.20;;;;;;5045977;28;19913;-85
2024/01/21 12:07:30;;;;;;;;;;;205.70;1971.20;;;;;;5029225;28;19996;-86
2024/01/21 12:09:57;;;;;;;;;;;230.40;2022.40;;;;;;5017126;28;19955;-81
2024/01/21 12:12:22;;;;;;;;;;;205.70;1996.80;;;;;;5035340;28;20007;-82
2024/01/21 12:14:48;;;;;;;;;;;205.50;2022.40;;;;;;5004226;28;19964;-84
2024/01/21 12:17:13;;;;;;;;;;;205.50;2073.60;;;;;;5008367;28;19917;-83
2024/01/21 12:19:39;;;;;;;;;;;205.70;2022.40;;;;;;5015074;28;19932;-82
2024/01/21 12:22:05;;;;;;;;;;;205.50;2022.40;;;;;;5017924;28;19901;-83
2024/01/21 12:24:30;;;;;;;;;;;205.50;2099.20;;;;;;5039629;28;19925;-80
2024/01/21 12:26:56;;;;;;;;;;;205.50;2124.80;;;;;;5032566;28;19913;-86
2024/01/21 12:29:22;;;;;;;;;;;205.50;2099.20;;;;;;5013752;28;19992;-85
2024/01/21 12:31:49;;;;;;;;;;;205.50;2073.60;;;;;;5017036;28;19909;-86
2024/01/21 12:34:14;;;;;;;;;;;205.20;2073.60;;;;;;5017171;28;19917;-83
2024/01/21 12:36:41;;;;;;;;;;;205.10;2150.40;;;;;;5016365;28;20059;-84
2024/01/21 12:39:14;;;;;;;;;;;205.00;2150.40;;;;;;5014180;28;19917;-84
2024/01/21 12:41:39;;;;;;;;;;;204.80;2150.40;;;;;;5040249;28;19909;-82
2024/01/21 12:44:05;;;;;;;;;;;204.90;2252.80;;;;;;5008972;28;19921;-84
2024/01/21 12:46:32;;;;;;;;;;;205.20;2252.80;;;;;;5025241;28;19909;-85
2024/01/21 12:48:58;;;;;;;;;;;204.80;2252.80;;;;;;5016388;28;19910;-82
2024/01/21 12:51:23;;;;;;;;;;;204.80;2252.80;;;;;;5044138;28;19909;-85
2024/01/21 12:53:52;;;;;;;;;;;180.10;2252.80;;;;;;5016234;28;19913;-85
2024/01/21 12:56:18;;;;;;;;;;;180.10;2252.80;;;;;;5016093;28;19925;-84
2024/01/21 12:58:44;;;;;;;;;;;179.90;2252.80;;;;;;5016357;28;19964;-84
2024/01/21 13:01:10;;;;;;;;;;;179.70;2252.80;;;;;;5029650;28;19914;-84
2024/01/21 13:03:36;;;;;;;;;;;179.70;2252.80;;;;;;5011144;28;20023;-84
2024/01/21 13:06:05;;;;;;;;;;;179.70;2252.80;;;;;;5006122;28;19913;-84
2024/01/21 13:08:35;;;;;;;;;;;179.60;2252.80;;;;;;5023413;28;19917;-85
2024/01/21 13:11:01;;;;;;;;;;;179.50;2252.80;;;;;;5012739;28;19940;-82
2024/01/21 13:13:28;;;;;;;;;;;179.70;2252.80;;;;;;5028163;28;19910;-87
2024/01/21 13:15:53;;;;;;;;;;;179.50;2252.80;;;;;;5029577;28;19916;-84
2024/01/21 13:18:19;;;;;;;;;;;179.60;2252.80;;;;;;5021719;28;20293;-84
2024/01/21 13:20:45;;;;;;;;;;;179.40;2252.80;;;;;;5010462;28;19957;-83
2024/01/21 13:23:13;;;;;;;;;;;179.40;2252.80;;;;;;5004889;28;20361;-83
2024/01/21 13:25:39;;;;;;;;;;;179.40;2252.80;;;;;;5048180;28;20289;-81
2024/01/21 13:30:55;;;;;;;;;;;179.20;2252.80;;;;;;4992803;28;19910;-81
2024/01/21 13:33:24;;;;;;;;;;;179.20;2252.80;;;;;;4979761;28;19997;-82
2024/01/21 13:35:51;;;;;;;;;;;154.50;2252.80;;;;;;4980293;28;20382;-82
2024/01/21 13:38:17;;;;;;;;;;;154.40;2252.80;;;;;;4996435;28;19921;-82
2024/01/21 13:40:42;;;;;;;;;;;154.40;2252.80;;;;;;4997165;28;19910;-79
2024/01/21 13:43:08;;;;;;;;;;;154.40;2252.80;;;;;;4996177;28;19941;-82
2024/01/21 13:45:37;;;;;;;;;;;154.30;2252.80;;;;;;4996705;28;19981;-78